createdAt,value
2019-04-12T00:06:35.000Z,26.1
2019-04-12T00:16:35.000Z,25.3
2019-04-12T00:26:35.000Z,25.4
2019-04-12T00:36:35.000Z,25.6
2019-04-12T00:46:35.000Z,29.3
2019-04-12T00:56:35.000Z,26.9
2019-04-12T01:06:35.000Z,28
2019-04-12T01:16:35.000Z,26.7
2019-04-12T01:26:35.000Z,26.1
2019-04-12T01:36:35.000Z,26.6
2019-04-12T01:46:35.000Z,26.7
2019-04-12T01:56:35.000Z,26.9
2019-04-12T02:06:35.000Z,27.7
2019-04-12T02:16:35.000Z,27.9
2019-04-12T02:26:37.000Z,28.4
2019-04-12T02:36:35.000Z,29
2019-04-12T02:46:35.000Z,29.4
2019-04-12T02:56:35.000Z,29.8
2019-04-12T03:06:35.000Z,30.2
2019-04-12T03:16:36.000Z,30.3
2019-04-12T03:26:35.000Z,30.7
2019-04-12T03:36:36.000Z,30.8
2019-04-12T03:46:35.000Z,31.3
2019-04-12T03:56:35.000Z,32.1
2019-04-12T04:06:35.000Z,32.1
2019-04-12T04:16:35.000Z,32.3
2019-04-12T04:26:35.000Z,32.7
2019-04-12T04:36:38.000Z,32.5
2019-04-12T04:46:35.000Z,33.1
2019-04-12T04:56:35.000Z,33.5
2019-04-12T05:06:35.000Z,33.4
2019-04-12T05:16:35.000Z,39.2
2019-04-12T05:26:36.000Z,40
2019-04-12T05:36:35.000Z,40.7
2019-04-12T05:46:35.000Z,41.2
2019-04-12T05:56:35.000Z,41.7
2019-04-12T06:06:37.000Z,42.7
2019-04-12T06:16:35.000Z,43.1
2019-04-12T06:26:35.000Z,40.4
2019-04-12T06:36:35.000Z,42.1
2019-04-12T06:46:36.000Z,42.6
2019-04-12T06:56:36.000Z,42.4
2019-04-12T07:06:36.000Z,42.7
2019-04-12T07:16:36.000Z,42.6
2019-04-12T07:36:36.000Z,42.6
2019-04-12T07:46:36.000Z,42.6
2019-04-12T07:56:36.000Z,43.4
2019-04-12T08:06:37.000Z,44.6
2019-04-12T08:16:36.000Z,43.9
2019-04-12T08:26:36.000Z,44.7
2019-04-12T08:36:36.000Z,44.7
2019-04-12T08:46:37.000Z,45.3
2019-04-12T08:56:36.000Z,45.9
2019-04-12T09:06:36.000Z,46.6
2019-04-12T09:16:36.000Z,46.9
2019-04-12T09:26:36.000Z,47.6
2019-04-12T09:36:36.000Z,48.3
2019-04-12T09:46:36.000Z,48.9
2019-04-12T09:56:38.000Z,49.8
2019-04-12T10:06:36.000Z,51.4
2019-04-12T10:16:36.000Z,52.7
2019-04-12T10:26:37.000Z,52.3
2019-04-12T10:36:36.000Z,51.8
2019-04-12T10:46:36.000Z,51
2019-04-12T10:56:36.000Z,50.9
2019-04-12T11:06:36.000Z,51
2019-04-12T11:26:36.000Z,50.8
2019-04-12T11:36:36.000Z,50.6
2019-04-12T11:46:36.000Z,50.5
2019-04-12T11:56:36.000Z,50.7
2019-04-12T12:06:36.000Z,50.6
2019-04-12T12:16:36.000Z,50.8
2019-04-12T12:26:36.000Z,50.7
2019-04-12T12:36:36.000Z,50.5
2019-04-12T12:46:36.000Z,50.5
2019-04-12T12:56:37.000Z,50.3
2019-04-12T13:06:36.000Z,50.2
2019-04-12T13:16:36.000Z,50.2
2019-04-12T13:26:36.000Z,50.7
2019-04-12T13:36:36.000Z,50.9
2019-04-12T13:46:37.000Z,51.1
2019-04-12T13:56:40.000Z,51.2
2019-04-12T14:06:37.000Z,51.3
2019-04-12T14:16:37.000Z,51.9
2019-04-12T14:26:37.000Z,51.4
2019-04-12T14:36:37.000Z,51.5
2019-04-12T14:46:38.000Z,51.8
2019-04-12T14:56:37.000Z,52
2019-04-12T15:06:37.000Z,51.3
2019-04-12T15:16:37.000Z,52.6
2019-04-12T15:26:37.000Z,56.1
2019-04-12T15:36:37.000Z,55.8
2019-04-12T15:46:37.000Z,56.9
2019-04-12T15:56:37.000Z,56.7
2019-04-12T16:16:37.000Z,56.9
2019-04-12T16:26:37.000Z,56.5
2019-04-12T16:36:37.000Z,56.6
2019-04-12T16:46:38.000Z,55.3
2019-04-12T16:56:39.000Z,53.6
2019-04-12T17:06:37.000Z,54.5
2019-04-12T17:16:37.000Z,54.5
2019-04-12T17:26:37.000Z,54.5
2019-04-12T17:36:37.000Z,54.5
2019-04-12T17:46:37.000Z,54.5
2019-04-12T17:56:37.000Z,54.4
2019-04-12T18:06:37.000Z,54.4
2019-04-12T18:16:38.000Z,54.4
2019-04-12T18:26:37.000Z,54.4
2019-04-12T18:46:37.000Z,54.4
2019-04-12T18:56:37.000Z,49.4
2019-04-12T19:06:37.000Z,50.5
2019-04-12T19:16:39.000Z,51
2019-04-12T19:26:37.000Z,50.9
2019-04-12T19:36:37.000Z,51.4
2019-04-12T19:46:37.000Z,51.4
2019-04-12T19:56:38.000Z,51.6
2019-04-12T20:16:37.000Z,51.8
2019-04-12T20:26:37.000Z,52.1
2019-04-12T20:36:39.000Z,52.1
2019-04-12T20:46:38.000Z,52
2019-04-12T20:56:40.000Z,52.2
2019-04-12T21:06:39.000Z,52.1
2019-04-12T21:16:38.000Z,52.3
2019-04-12T21:36:38.000Z,52.2
2019-04-12T21:46:38.000Z,52.2
2019-04-12T21:56:38.000Z,52.2
2019-04-12T22:06:39.000Z,52.3
2019-04-12T22:16:38.000Z,52.3
2019-04-12T22:26:39.000Z,42.3
2019-04-12T22:36:38.000Z,36.5
2019-04-12T22:46:40.000Z,35.4
2019-04-12T22:56:38.000Z,34.8
2019-04-12T23:06:38.000Z,34.7
2019-04-12T23:16:38.000Z,34.4
2019-04-12T23:26:42.000Z,34.4
2019-04-12T23:36:38.000Z,34.5
2019-04-12T23:46:38.000Z,34.4
2019-04-12T23:56:40.000Z,34.4
